Time;durP1;ratioP1;P1;durP2;ratioP2;P2;SDS_P1;SDS_P2;PMS_P1;PMS_P2;Temp;Humidity;BMP_temperature;BMP_pressure;BME280_temperature;BME280_humidity;BME280_pressure;Samples;Min_cycle;Max_cycle;Signal;HPM_P1;HPM_P2
2022/07/23 00:01:35;;;;;;;5.20;4.80;;;24.60;72.60;;;;;;5008758;28;20197;-70
2022/07/23 00:04:01;;;;;;;5.35;4.95;;;24.60;72.60;;;;;;4992080;28;20267;-70
2022/07/23 00:06:26;;;;;;;5.03;4.65;;;24.60;72.70;;;;;;4992528;28;20226;-70
2022/07/23 00:08:52;;;;;;;5.05;4.68;;;24.60;72.70;;;;;;4992561;28;20335;-70
2022/07/23 00:11:18;;;;;;;5.30;4.90;;;24.60;72.50;;;;;;5008409;28;20243;-70
2022/07/23 00:13:44;;;;;;;5.70;5.20;;;24.70;72.50;;;;;;5008933;28;20185;-70
2022/07/23 00:16:10;;;;;;;4.78;4.38;;;24.60;72.70;;;;;;5008331;28;20209;-70
2022/07/23 00:18:36;;;;;;;4.78;4.38;;;24.60;72.60;;;;;;5008906;28;20181;-70
2022/07/23 00:21:02;;;;;;;5.18;4.78;;;24.60;72.70;;;;;;5009125;28;20185;-71
2022/07/23 00:23:29;;;;;;;5.30;4.80;;;24.60;72.60;;;;;;4992322;28;20189;-70
2022/07/23 00:25:54;;;;;;;4.60;4.30;;;24.60;72.60;;;;;;5007682;28;20240;-70
2022/07/23 00:28:20;;;;;;;4.80;4.40;;;24.60;72.50;;;;;;5008898;28;20223;-70
2022/07/23 00:30:46;;;;;;;4.93;4.53;;;24.60;72.60;;;;;;4992139;28;20213;-70
2022/07/23 00:33:13;;;;;;;5.10;4.70;;;24.60;72.70;;;;;;5008651;28;20185;-70
2022/07/23 00:35:40;;;;;;;5.32;4.93;;;24.60;72.70;;;;;;4991492;28;20205;-70
2022/07/23 00:38:09;;;;;;;4.70;4.30;;;24.60;72.70;;;;;;5008243;28;20185;-70
2022/07/23 00:40:36;;;;;;;4.90;4.50;;;24.60;72.70;;;;;;5008478;28;20193;-70
2022/07/23 00:43:03;;;;;;;4.72;4.32;;;24.60;72.70;;;;;;5008389;28;20181;-70
2022/07/23 00:45:29;;;;;;;4.90;4.60;;;24.60;72.70;;;;;;4992504;28;20209;-70
2022/07/23 00:47:55;;;;;;;4.97;4.57;;;24.60;72.70;;;;;;5008232;28;20220;-70
2022/07/23 00:50:21;;;;;;;5.50;5.10;;;24.60;72.70;;;;;;5008277;28;20255;-70
2022/07/23 00:52:47;;;;;;;4.65;4.32;;;24.60;72.70;;;;;;4991831;28;20181;-71
2022/07/23 00:55:13;;;;;;;5.10;4.72;;;24.60;72.80;;;;;;4991167;28;20203;-70
2022/07/23 00:57:41;;;;;;;5.10;4.70;;;24.60;72.90;;;;;;5007994;28;20196;-71
2022/07/23 01:00:11;;;;;;;5.35;4.68;;;24.60;72.90;;;;;;4975403;28;20197;-70
2022/07/23 01:02:38;;;;;;;4.82;4.40;;;24.60;72.90;;;;;;5008094;28;20575;-70
2022/07/23 01:05:05;;;;;;;4.70;4.40;;;24.60;72.80;;;;;;4974718;28;20188;-70
2022/07/23 01:07:31;;;;;;;4.97;4.60;;;24.60;72.90;;;;;;4992105;28;20188;-70
2022/07/23 01:09:58;;;;;;;4.55;4.25;;;24.60;72.80;;;;;;4975413;28;20216;-70
2022/07/23 01:12:24;;;;;;;5.03;4.63;;;24.60;72.90;;;;;;5007690;28;20192;-70
2022/07/23 01:14:55;;;;;;;4.57;4.28;;;24.60;72.90;;;;;;4990435;28;20185;-70
2022/07/23 01:17:21;;;;;;;4.85;4.45;;;24.60;73.00;;;;;;4991747;28;20185;-70
2022/07/23 01:19:47;;;;;;;4.50;4.20;;;24.60;73.00;;;;;;5007936;28;20708;-70
2022/07/23 01:22:18;;;;;;;5.10;4.70;;;24.60;73.00;;;;;;5007610;28;20223;-70
2022/07/23 01:24:45;;;;;;;4.53;4.22;;;24.60;73.00;;;;;;4987586;28;20272;-70
2022/07/23 01:27:12;;;;;;;4.72;4.38;;;24.60;73.00;;;;;;4988114;28;20684;-70
2022/07/23 01:29:39;;;;;;;4.55;4.25;;;24.60;73.00;;;;;;4988398;28;20769;-70
2022/07/23 01:32:14;;;;;;;4.68;4.28;;;24.60;73.00;;;;;;4988159;28;20189;-71
2022/07/23 01:34:40;;;;;;;5.00;4.70;;;24.60;73.00;;;;;;4987502;28;20190;-70
2022/07/23 01:37:06;;;;;;;4.63;4.22;;;24.60;73.00;;;;;;4988314;28;20202;-70
2022/07/23 01:39:32;;;;;;;4.32;3.92;;;24.50;72.90;;;;;;4988327;28;20204;-70
2022/07/23 01:41:58;;;;;;;4.72;4.32;;;24.50;72.90;;;;;;4988012;28;20264;-70
2022/07/23 01:44:25;;;;;;;4.82;4.43;;;24.60;73.00;;;;;;4987566;28;20189;-70
2022/07/23 01:46:51;;;;;;;4.75;4.20;;;24.50;72.90;;;;;;4987826;28;20205;-70
2022/07/23 01:49:18;;;;;;;4.22;3.92;;;24.50;73.00;;;;;;4988000;28;20292;-70
2022/07/23 01:52:02;;;;;;;4.97;4.57;;;24.60;73.10;;;;;;4987755;28;20186;-70
2022/07/23 01:54:40;;;;;;;4.70;4.30;;;24.60;73.00;;;;;;4987906;28;20724;-70
2022/07/23 01:57:08;;;;;;;4.75;4.43;;;24.60;73.00;;;;;;4987818;28;20213;-70
2022/07/23 01:59:35;;;;;;;4.53;4.13;;;24.50;72.90;;;;;;4987863;28;20197;-70
2022/07/23 02:02:03;;;;;;;5.30;4.90;;;24.50;73.00;;;;;;4987960;28;20185;-70
2022/07/23 02:04:31;;;;;;;4.70;4.32;;;24.50;72.90;;;;;;4987638;28;20276;-70
2022/07/23 02:06:58;;;;;;;4.45;4.15;;;24.50;72.90;;;;;;4988098;28;20206;-70
2022/07/23 02:09:26;;;;;;;4.53;4.15;;;24.50;72.90;;;;;;4988085;28;20225;-70
2022/07/23 02:11:51;;;;;;;4.45;4.15;;;24.60;73.00;;;;;;4987445;28;20185;-70
2022/07/23 02:14:18;;;;;;;4.75;4.35;;;24.50;72.80;;;;;;4994589;28;20181;-70
2022/07/23 02:16:45;;;;;;;4.55;4.25;;;24.50;72.80;;;;;;5007278;28;20197;-70
2022/07/23 02:19:11;;;;;;;4.85;4.55;;;24.50;72.80;;;;;;5007460;28;20192;-70
2022/07/23 02:21:37;;;;;;;4.55;4.25;;;24.50;72.80;;;;;;5007320;28;20220;-70
2022/07/23 02:24:04;;;;;;;4.57;4.28;;;24.50;72.80;;;;;;5006917;28;20279;-70
2022/07/23 02:26:34;;;;;;;4.45;4.07;;;24.50;72.80;;;;;;5010469;28;20688;-70
2022/07/23 02:29:02;;;;;;;4.78;4.40;;;24.50;72.70;;;;;;5010706;28;20208;-70
2022/07/23 02:31:30;;;;;;;5.00;4.70;;;24.50;72.80;;;;;;5010727;28;20251;-70
2022/07/23 02:33:56;;;;;;;4.80;4.35;;;24.50;72.80;;;;;;5010832;28;20183;-70
2022/07/23 02:36:23;;;;;;;4.38;4.07;;;24.50;72.90;;;;;;5010112;28;20252;-71
2022/07/23 02:38:49;;;;;;;4.47;4.18;;;24.50;72.90;;;;;;5010685;28;20177;-70
2022/07/23 02:41:15;;;;;;;5.05;4.65;;;24.50;72.90;;;;;;5010728;28;20675;-70
2022/07/23 02:43:41;;;;;;;4.32;4.03;;;24.50;72.90;;;;;;5010630;28;20188;-70
2022/07/23 02:46:07;;;;;;;4.82;4.53;;;24.60;73.00;;;;;;5009750;28;20255;-70
2022/07/23 02:48:34;;;;;;;4.43;4.13;;;24.50;72.80;;;;;;5010511;28;20200;-70
2022/07/23 02:51:00;;;;;;;4.60;4.20;;;24.50;72.90;;;;;;5008204;28;20217;-70
2022/07/23 02:53:32;;;;;;;5.03;4.63;;;24.50;72.80;;;;;;4994639;28;20185;-70
2022/07/23 02:55:58;;;;;;;4.65;4.35;;;24.50;72.80;;;;;;5009365;28;20683;-70
2022/07/23 02:58:26;;;;;;;4.85;4.43;;;24.50;72.90;;;;;;5010326;28;20196;-70
2022/07/23 03:00:53;;;;;;;4.53;4.15;;;24.50;72.90;;;;;;4993912;28;20653;-70
2022/07/23 03:03:19;;;;;;;4.68;4.38;;;24.50;72.90;;;;;;5009487;28;20205;-70
2022/07/23 03:05:45;;;;;;;5.07;4.68;;;24.50;72.90;;;;;;5009891;28;20208;-70
2022/07/23 03:08:11;;;;;;;4.82;4.47;;;24.50;72.90;;;;;;4977948;28;20268;-70
2022/07/23 03:10:40;;;;;;;5.03;4.60;;;24.50;72.90;;;;;;4978211;28;20208;-70
2022/07/23 03:13:06;;;;;;;4.90;4.60;;;24.50;72.90;;;;;;5010421;28;20180;-70
2022/07/23 03:15:31;;;;;;;5.45;5.05;;;24.50;72.90;;;;;;4976725;28;20699;-69
2022/07/23 03:17:58;;;;;;;4.80;4.43;;;24.50;73.00;;;;;;5009590;28;20212;-70
2022/07/23 03:20:23;;;;;;;5.10;4.63;;;24.50;73.00;;;;;;4993577;28;20601;-70
2022/07/23 03:22:49;;;;;;;4.85;4.45;;;24.50;73.00;;;;;;4993840;28;20193;-70
2022/07/23 03:25:18;;;;;;;4.40;4.07;;;24.50;73.00;;;;;;4993241;28;20335;-70
2022/07/23 03:27:45;;;;;;;5.47;5.07;;;24.50;73.00;;;;;;4993590;28;20732;-70
2022/07/23 03:30:11;;;;;;;4.55;4.25;;;24.50;73.00;;;;;;4993335;28;20217;-70
2022/07/23 03:32:37;;;;;;;5.00;4.60;;;24.50;73.00;;;;;;4993645;28;20247;-70
2022/07/23 03:35:05;;;;;;;5.10;4.60;;;24.50;73.80;;;;;;4992413;28;20192;-70
2022/07/23 03:37:31;;;;;;;4.70;4.30;;;24.40;73.00;;;;;;4992551;28;20184;-70
2022/07/23 03:39:58;;;;;;;5.03;4.57;;;24.50;73.00;;;;;;4993524;28;20193;-70
2022/07/23 03:42:24;;;;;;;4.60;4.25;;;24.50;73.10;;;;;;4993135;28;20702;-70
2022/07/23 03:44:50;;;;;;;4.93;4.55;;;24.50;73.10;;;;;;4992630;28;20189;-70
2022/07/23 03:47:17;;;;;;;4.47;4.07;;;24.50;73.00;;;;;;4992927;28;20220;-70
2022/07/23 03:49:43;;;;;;;4.82;4.43;;;24.50;73.00;;;;;;4992845;28;20243;-70
2022/07/23 03:52:09;;;;;;;4.93;4.53;;;24.50;73.10;;;;;;5009349;28;20251;-70
2022/07/23 03:54:35;;;;;;;4.85;4.45;;;24.50;73.00;;;;;;4992346;28;20567;-70
2022/07/23 03:57:01;;;;;;;4.50;4.10;;;24.50;73.10;;;;;;4992781;28;20209;-70
2022/07/23 03:59:28;;;;;;;4.80;4.45;;;24.50;73.10;;;;;;4993246;28;20220;-70
2022/07/23 04:01:54;;;;;;;5.07;4.78;;;24.50;73.10;;;;;;5008881;28;20220;-70
2022/07/23 04:04:20;;;;;;;5.45;5.05;;;24.50;73.10;;;;;;4992507;28;20679;-70
2022/07/23 04:06:46;;;;;;;5.18;4.78;;;24.40;73.00;;;;;;4992597;28;20244;-70
2022/07/23 04:09:12;;;;;;;5.10;4.70;;;24.50;73.30;;;;;;4992656;28;20243;-70
2022/07/23 04:11:38;;;;;;;4.80;4.40;;;24.50;73.30;;;;;;4992752;28;20195;-70
2022/07/23 04:14:04;;;;;;;5.28;4.88;;;24.40;73.00;;;;;;4992741;28;20615;-70
2022/07/23 04:16:33;;;;;;;5.00;4.68;;;24.50;73.20;;;;;;4991850;28;20209;-70
2022/07/23 04:18:59;;;;;;;5.22;4.72;;;24.50;74.00;;;;;;4992380;28;20184;-70
2022/07/23 04:21:28;;;;;;;5.35;4.95;;;24.50;73.10;;;;;;4991180;28;20181;-70
2022/07/23 04:23:54;;;;;;;4.93;4.63;;;24.40;73.00;;;;;;5008596;28;20189;-70
2022/07/23 04:26:21;;;;;;;5.03;4.63;;;24.40;73.00;;;;;;5008188;28;20204;-70
2022/07/23 04:28:47;;;;;;;5.03;4.65;;;24.40;73.00;;;;;;5008483;28;20192;-70
2022/07/23 04:31:13;;;;;;;5.47;4.97;;;24.40;73.00;;;;;;5008757;28;20192;-70
2022/07/23 04:33:39;;;;;;;5.07;4.68;;;24.40;73.00;;;;;;5008445;28;20180;-70
2022/07/23 04:36:07;;;;;;;5.15;4.75;;;24.40;73.00;;;;;;5007976;28;20213;-70
2022/07/23 04:38:33;;;;;;;4.72;4.43;;;24.40;73.10;;;;;;4992113;28;20185;-71
2022/07/23 04:41:01;;;;;;;4.85;4.45;;;24.40;73.10;;;;;;5008539;28;20283;-70
2022/07/23 04:43:27;;;;;;;5.00;4.65;;;24.40;73.10;;;;;;4992003;28;20667;-70
2022/07/23 04:45:54;;;;;;;5.20;4.80;;;24.40;73.10;;;;;;5007203;28;20211;-71
2022/07/23 04:48:20;;;;;;;4.97;4.60;;;24.40;73.20;;;;;;5004331;28;20182;-71
2022/07/23 04:50:49;;;;;;;4.95;4.55;;;24.40;73.20;;;;;;4995470;28;20296;-68
2022/07/23 04:53:19;;;;;;;4.93;4.47;;;24.40;73.20;;;;;;5003883;28;20561;-69
2022/07/23 04:55:46;;;;;;;5.72;5.22;;;24.40;73.20;;;;;;5010975;28;20217;-70
2022/07/23 04:58:12;;;;;;;5.60;5.10;;;24.50;73.40;;;;;;5001305;28;20178;-72
2022/07/23 05:00:38;;;;;;;5.57;5.15;;;24.40;73.20;;;;;;5010009;28;20182;-70
2022/07/23 05:03:04;;;;;;;5.10;4.68;;;24.40;73.20;;;;;;4984646;28;20189;-70
2022/07/23 05:05:29;;;;;;;5.63;5.18;;;24.40;73.30;;;;;;4994087;28;20205;-71
2022/07/23 05:08:05;;;;;;;5.47;4.97;;;24.40;73.30;;;;;;4977582;28;20660;-70
2022/07/23 05:10:31;;;;;;;5.28;4.78;;;24.40;73.30;;;;;;4991756;28;20220;-70
2022/07/23 05:12:57;;;;;;;5.38;4.88;;;24.40;73.40;;;;;;5007857;28;20180;-70
2022/07/23 05:15:23;;;;;;;5.68;5.22;;;24.40;73.50;;;;;;5007398;28;20207;-69
2022/07/23 05:17:49;;;;;;;5.40;5.00;;;24.40;73.50;;;;;;4989530;28;20192;-69
2022/07/23 05:20:17;;;;;;;5.05;4.65;;;24.40;73.60;;;;;;4972443;28;20186;-69
2022/07/23 05:22:42;;;;;;;5.60;5.20;;;24.40;73.50;;;;;;4985101;28;20208;-70
2022/07/23 05:25:09;;;;;;;5.35;4.85;;;24.40;74.30;;;;;;4991056;28;20564;-69
2022/07/23 05:27:35;;;;;;;5.55;4.90;;;24.40;73.50;;;;;;5007801;28;20216;-69
2022/07/23 05:30:01;;;;;;;5.57;5.07;;;24.40;73.40;;;;;;4991853;28;20220;-69
2022/07/23 05:32:31;;;;;;;5.80;5.30;;;24.40;73.40;;;;;;5007626;28;20751;-70
2022/07/23 05:35:07;;;;;;;5.82;5.43;;;24.40;73.50;;;;;;5007383;28;20211;-70
2022/07/23 05:37:36;;;;;;;5.32;4.93;;;24.40;73.50;;;;;;5007719;28;20188;-70
2022/07/23 05:40:09;;;;;;;5.40;5.00;;;24.40;73.50;;;;;;4989317;28;20186;-70
2022/07/23 05:42:37;;;;;;;5.43;5.03;;;24.40;73.50;;;;;;4971784;28;20280;-70
2022/07/23 05:45:04;;;;;;;5.68;5.18;;;24.40;73.60;;;;;;4981820;28;20189;-69
2022/07/23 05:47:41;;;;;;;5.82;5.32;;;24.40;73.60;;;;;;4972068;28;20185;-70
2022/07/23 05:50:08;;;;;;;5.45;5.05;;;24.40;73.70;;;;;;4958702;28;20255;-70
2022/07/23 05:52:42;;;;;;;5.63;5.22;;;24.40;73.70;;;;;;4995388;28;20245;-71
2022/07/23 05:55:31;;;;;;;5.68;5.28;;;24.40;73.70;;;;;;5003367;28;20324;-71
2022/07/23 05:57:58;;;;;;;5.28;4.88;;;24.40;73.70;;;;;;4997997;28;20186;-70
2022/07/23 06:00:26;;;;;;;5.50;5.00;;;24.40;73.70;;;;;;4985721;28;20225;-70
2022/07/23 06:02:52;;;;;;;5.40;4.90;;;24.40;73.70;;;;;;4998610;28;20280;-70
2022/07/23 06:05:18;;;;;;;5.30;4.88;;;24.40;73.70;;;;;;5010079;28;20624;-69
2022/07/23 06:07:45;;;;;;;5.95;5.22;;;24.40;73.70;;;;;;4991796;28;20189;-70
2022/07/23 06:10:12;;;;;;;5.70;5.20;;;24.40;73.70;;;;;;5000318;28;20834;-70
2022/07/23 06:12:39;;;;;;;5.75;5.25;;;24.40;73.80;;;;;;5022670;28;20649;-69
2022/07/23 06:15:06;;;;;;;5.35;4.95;;;24.40;74.50;;;;;;5003425;28;20189;-70
2022/07/23 06:17:33;;;;;;;5.38;4.97;;;24.30;73.70;;;;;;4994967;28;20664;-70
2022/07/23 06:19:59;;;;;;;5.75;5.30;;;24.40;74.00;;;;;;4992256;28;20235;-70
2022/07/23 06:22:25;;;;;;;5.50;5.10;;;24.30;74.60;;;;;;5014966;28;20197;-69
2022/07/23 06:24:54;;;;;;;5.95;5.45;;;24.30;73.80;;;;;;4993741;28;20193;-67
2022/07/23 06:27:21;;;;;;;6.05;5.47;;;24.30;73.90;;;;;;5009103;28;20181;-69
2022/07/23 06:29:46;;;;;;;5.63;5.22;;;24.40;74.10;;;;;;4994009;28;20216;-69
2022/07/23 06:32:12;;;;;;;6.05;5.55;;;24.30;74.00;;;;;;5002349;28;20304;-70
2022/07/23 06:34:38;;;;;;;5.57;5.18;;;24.40;74.00;;;;;;5010496;28;20224;-69
2022/07/23 06:37:05;;;;;;;5.35;4.95;;;24.40;74.10;;;;;;5010743;28;20699;-70
2022/07/23 06:39:31;;;;;;;5.85;5.35;;;24.40;74.20;;;;;;4991311;28;20202;-69
2022/07/23 06:42:00;;;;;;;5.45;5.05;;;24.40;74.20;;;;;;4975573;28;20542;-69
2022/07/23 06:44:36;;;;;;;5.68;5.28;;;24.40;74.20;;;;;;4994266;28;20183;-69
2022/07/23 06:47:02;;;;;;;5.97;5.47;;;24.40;74.10;;;;;;5017421;28;20205;-70
2022/07/23 06:49:28;;;;;;;5.55;5.05;;;24.40;74.10;;;;;;4994160;28;20599;-70
2022/07/23 06:51:57;;;;;;;5.72;5.25;;;24.40;74.10;;;;;;4996854;28;20188;-70
2022/07/23 06:54:23;;;;;;;5.63;5.18;;;24.40;74.20;;;;;;5007173;28;20182;-70
2022/07/23 06:56:49;;;;;;;5.40;5.00;;;24.40;74.20;;;;;;5008449;28;20216;-70
2022/07/23 06:59:15;;;;;;;5.97;5.47;;;24.40;75.10;;;;;;4991472;28;20189;-69
2022/07/23 07:01:42;;;;;;;5.97;5.47;;;24.40;74.30;;;;;;4995333;28;20267;-69
2022/07/23 07:04:08;;;;;;;6.30;5.80;;;24.40;74.30;;;;;;5014511;28;20284;-70
2022/07/23 07:06:34;;;;;;;5.72;5.28;;;24.40;74.40;;;;;;4974977;28;20205;-69
2022/07/23 07:09:00;;;;;;;6.20;5.70;;;24.40;74.40;;;;;;5013864;28;20181;-70
2022/07/23 07:11:26;;;;;;;6.63;6.03;;;24.40;74.40;;;;;;5013564;28;20196;-70
2022/07/23 07:13:52;;;;;;;5.93;5.53;;;24.40;74.50;;;;;;4970487;28;20212;-70
2022/07/23 07:16:18;;;;;;;6.05;5.60;;;24.40;74.60;;;;;;4985624;28;20201;-70
2022/07/23 07:18:44;;;;;;;5.95;5.45;;;24.40;74.70;;;;;;5000632;28;20188;-70
2022/07/23 07:21:09;;;;;;;5.97;5.47;;;24.40;74.70;;;;;;4992284;28;20193;-69
2022/07/23 07:23:35;;;;;;;6.53;5.93;;;24.40;74.80;;;;;;4991857;28;20178;-70
2022/07/23 07:26:01;;;;;;;6.25;5.75;;;24.40;74.80;;;;;;4998611;28;20205;-69
2022/07/23 07:28:27;;;;;;;5.57;5.18;;;24.50;75.00;;;;;;4998161;28;20268;-69
2022/07/23 07:30:53;;;;;;;6.10;5.60;;;24.40;75.10;;;;;;4989439;28;20218;-70
2022/07/23 07:33:19;;;;;;;6.38;5.88;;;24.40;75.00;;;;;;4973900;28;20530;-69
2022/07/23 07:35:44;;;;;;;5.30;4.90;;;24.40;75.10;;;;;;4973055;28;20205;-70
2022/07/23 07:38:10;;;;;;;6.18;5.68;;;24.40;75.20;;;;;;4974012;28;20186;-70
2022/07/23 07:40:36;;;;;;;6.07;5.65;;;24.40;75.20;;;;;;4973837;28;20203;-70
2022/07/23 07:43:03;;;;;;;6.05;5.55;;;24.40;75.30;;;;;;4973689;28;20293;-71
2022/07/23 07:45:29;;;;;;;6.15;5.68;;;24.40;75.30;;;;;;4974846;28;20214;-70
2022/07/23 07:47:55;;;;;;;6.22;5.70;;;24.50;76.60;;;;;;5007038;28;20288;-70
2022/07/23 07:50:22;;;;;;;6.07;5.53;;;24.50;75.30;;;;;;4985921;28;20305;-70
2022/07/23 07:52:48;;;;;;;6.35;5.78;;;24.50;75.40;;;;;;5013655;28;20190;-70
2022/07/23 07:55:14;;;;;;;6.00;5.60;;;24.50;75.20;;;;;;5004566;28;20236;-70
2022/07/23 07:57:40;;;;;;;6.28;5.72;;;24.50;75.60;;;;;;4991315;28;20190;-70
2022/07/23 08:00:09;;;;;;;5.53;5.13;;;24.50;75.40;;;;;;4972904;28;20188;-69
2022/07/23 08:02:52;;;;;;;5.68;5.28;;;24.50;77.40;;;;;;4958085;28;20196;-71
2022/07/23 08:05:27;;;;;;;6.22;5.70;;;24.50;75.20;;;;;;4972719;28;20299;-70
2022/07/23 08:07:53;;;;;;;6.07;5.57;;;24.50;75.40;;;;;;4973234;28;20185;-71
2022/07/23 08:10:19;;;;;;;5.72;5.22;;;24.50;75.40;;;;;;4973011;28;20217;-70
2022/07/23 08:12:48;;;;;;;5.40;5.00;;;24.50;75.30;;;;;;4991046;28;20251;-70
2022/07/23 08:15:19;;;;;;;5.50;5.10;;;24.50;75.40;;;;;;5006162;28;20189;-69
2022/07/23 08:17:47;;;;;;;6.07;5.63;;;24.50;75.20;;;;;;4986242;28;20181;-70
2022/07/23 08:20:16;;;;;;;6.07;5.57;;;24.50;75.30;;;;;;4989282;28;20189;-70
2022/07/23 08:23:00;;;;;;;5.97;5.13;;;24.50;75.40;;;;;;4988761;28;20284;-70
2022/07/23 08:25:32;;;;;;;5.78;5.35;;;24.50;75.40;;;;;;4988849;28;20217;-70
2022/07/23 08:28:01;;;;;;;5.90;5.35;;;24.50;75.40;;;;;;4989108;28;20193;-70
2022/07/23 08:30:28;;;;;;;5.65;5.25;;;24.50;75.30;;;;;;4989000;28;20241;-71
2022/07/23 08:33:05;;;;;;;5.55;5.10;;;24.60;75.40;;;;;;4989031;28;20189;-70
2022/07/23 08:35:42;;;;;;;5.90;5.40;;;24.60;75.20;;;;;;4988121;28;20236;-70
2022/07/23 08:38:10;;;;;;;5.80;5.30;;;24.60;75.20;;;;;;4989008;28;20181;-70
2022/07/23 08:40:45;;;;;;;5.53;5.13;;;24.60;75.40;;;;;;5005783;28;20192;-69
2022/07/23 08:43:19;;;;;;;5.65;5.15;;;24.60;75.50;;;;;;4992163;28;20199;-70
2022/07/23 08:45:49;;;;;;;6.05;5.55;;;24.50;75.60;;;;;;5007763;28;20278;-70
2022/07/23 08:48:18;;;;;;;5.78;5.28;;;24.60;75.50;;;;;;5005775;28;20181;-70
2022/07/23 08:50:51;;;;;;;5.60;5.20;;;24.60;76.00;;;;;;4989899;28;20226;-70
2022/07/23 08:53:18;;;;;;;5.57;5.18;;;24.60;75.90;;;;;;4988094;28;20277;-70
2022/07/23 08:55:47;;;;;;;5.82;5.35;;;24.60;75.90;;;;;;4997610;28;20300;-70
2022/07/23 08:58:14;;;;;;;5.50;5.10;;;24.60;75.50;;;;;;4986607;28;20280;-69
2022/07/23 09:00:40;;;;;;;5.90;5.38;;;24.60;75.70;;;;;;4994051;28;20576;-70
2022/07/23 09:03:06;;;;;;;6.03;5.53;;;24.60;75.50;;;;;;4989829;28;20185;-70
2022/07/23 09:05:32;;;;;;;5.57;5.10;;;24.60;75.70;;;;;;4994142;28;20205;-70
2022/07/23 09:08:18;;;;;;;5.60;5.10;;;24.60;75.50;;;;;;5012704;28;20190;-70
2022/07/23 09:11:13;;;;;;;5.60;4.88;;;24.60;75.50;;;;;;5013577;28;20208;-70
2022/07/23 09:13:47;;;;;;;5.90;5.45;;;24.60;75.60;;;;;;4973339;28;20201;-70
2022/07/23 09:16:18;;;;;;;5.65;5.15;;;24.70;75.80;;;;;;4989028;28;20201;-70
2022/07/23 09:18:46;;;;;;;5.93;5.43;;;24.70;76.00;;;;;;4995979;28;20272;-70
2022/07/23 09:21:15;;;;;;;5.90;5.47;;;24.70;76.00;;;;;;4988271;28;20604;-70
2022/07/23 09:24:03;;;;;;;5.72;5.28;;;24.70;76.00;;;;;;4996073;28;20195;-70
2022/07/23 09:26:41;;;;;;;5.85;5.35;;;24.70;75.80;;;;;;4985036;28;20203;-70
2022/07/23 09:29:11;;;;;;;5.30;4.90;;;24.70;75.80;;;;;;4984818;28;20192;-70
2022/07/23 09:31:50;;;;;;;5.60;5.20;;;24.70;76.00;;;;;;4981601;28;20185;-70
2022/07/23 09:34:26;;;;;;;6.18;5.68;;;24.70;76.10;;;;;;4988585;28;20572;-70
2022/07/23 09:36:58;;;;;;;5.60;5.20;;;24.70;76.20;;;;;;5009965;28;20220;-70
2022/07/23 09:39:33;;;;;;;5.70;5.28;;;24.70;76.30;;;;;;5005522;28;20195;-70
2022/07/23 09:42:18;;;;;;;5.68;5.20;;;24.70;76.40;;;;;;4985987;28;20240;-70
2022/07/23 09:44:55;;;;;;;6.03;5.50;;;24.60;76.00;;;;;;5011019;28;20201;-70
2022/07/23 09:47:24;;;;;;;5.70;5.30;;;24.70;76.10;;;;;;4997444;28;20288;-70
2022/07/23 09:50:05;;;;;;;5.75;5.20;;;24.70;76.20;;;;;;4995810;28;20198;-70
2022/07/23 09:52:35;;;;;;;5.60;4.95;;;24.70;76.50;;;;;;4994018;28;20186;-70
2022/07/23 09:55:06;;;;;;;5.90;5.30;;;24.70;76.20;;;;;;4994863;28;20184;-69
2022/07/23 09:57:33;;;;;;;5.60;5.10;;;24.70;76.30;;;;;;4996017;28;20190;-70
2022/07/23 10:00:05;;;;;;;7.55;4.82;;;24.70;76.50;;;;;;5014578;28;20658;-70
2022/07/23 10:02:35;;;;;;;6.13;5.53;;;24.70;76.40;;;;;;5009961;28;20184;-70
2022/07/23 10:05:20;;;;;;;5.80;5.38;;;24.70;76.50;;;;;;4996808;28;20300;-71
2022/07/23 10:08:12;;;;;;;5.88;5.30;;;24.70;76.50;;;;;;4971974;28;20193;-70
2022/07/23 10:10:57;;;;;;;5.40;5.00;;;24.70;76.90;;;;;;4996546;28;20231;-70
2022/07/23 10:13:56;;;;;;;6.05;5.55;;;24.70;76.50;;;;;;5001222;28;20219;-70
2022/07/23 10:16:31;;;;;;;5.45;4.85;;;24.70;76.70;;;;;;5013222;28;20250;-70
2022/07/23 10:18:57;;;;;;;5.82;5.32;;;24.70;77.00;;;;;;4996580;28;20192;-68
2022/07/23 10:21:51;;;;;;;5.15;4.75;;;24.70;76.80;;;;;;4993180;28;20194;-70
2022/07/23 10:25:14;;;;;;;5.47;5.03;;;24.70;76.70;;;;;;4990174;28;20292;-71
2022/07/23 10:28:04;;;;;;;5.75;5.35;;;24.80;77.20;;;;;;5002739;28;20228;-70
2022/07/23 10:30:41;;;;;;;6.18;5.45;;;24.80;77.00;;;;;;4967178;28;20209;-72
2022/07/23 10:33:39;;;;;;;5.50;5.00;;;24.80;77.30;;;;;;4963123;28;20192;-69
2022/07/23 10:36:21;;;;;;;7.05;5.22;;;24.80;78.10;;;;;;4990804;28;20205;-70
2022/07/23 10:39:36;;;;;;;5.70;5.20;;;24.80;77.20;;;;;;4965140;28;20180;-70
2022/07/23 10:42:17;;;;;;;5.90;5.40;;;24.80;78.60;;;;;;4964263;28;20201;-70
2022/07/23 10:44:48;;;;;;;5.57;5.07;;;24.80;77.50;;;;;;5011922;28;20295;-71
2022/07/23 10:47:41;;;;;;;5.97;5.40;;;24.80;77.80;;;;;;5003288;28;20216;-71
2022/07/23 10:50:31;;;;;;;5.88;5.38;;;24.80;78.10;;;;;;4997904;28;20244;-70
2022/07/23 10:53:06;;;;;;;5.45;4.97;;;24.80;77.60;;;;;;4988817;28;20190;-71
2022/07/23 10:55:32;;;;;;;5.93;5.35;;;24.80;78.00;;;;;;4997135;28;20235;-70
2022/07/23 10:57:58;;;;;;;5.53;5.13;;;24.80;77.60;;;;;;4962962;28;20585;-71
2022/07/23 11:00:35;;;;;;;5.78;5.28;;;24.80;77.60;;;;;;4988313;28;20284;-70
2022/07/23 11:03:25;;;;;;;5.55;5.05;;;24.80;77.60;;;;;;4992505;28;20217;-70
2022/07/23 11:05:51;;;;;;;5.43;5.03;;;24.80;77.50;;;;;;4990779;28;20260;-71
2022/07/23 11:08:20;;;;;;;5.53;5.03;;;24.80;77.70;;;;;;5004908;28;20195;-71
2022/07/23 11:10:55;;;;;;;5.20;4.80;;;24.80;77.80;;;;;;4987756;28;20255;-70
2022/07/23 11:13:24;;;;;;;5.70;5.20;;;24.80;78.10;;;;;;4979479;28;20239;-70
2022/07/23 11:16:02;;;;;;;6.25;5.70;;;24.80;78.50;;;;;;4987729;28;20676;-70
2022/07/23 11:18:43;;;;;;;9.13;5.55;;;24.80;78.10;;;;;;4987707;28;20173;-71
2022/07/23 11:21:26;;;;;;;5.43;4.93;;;24.80;78.10;;;;;;5002204;28;20196;-71
2022/07/23 11:24:07;;;;;;;5.70;5.20;;;24.80;78.10;;;;;;4982813;28;20186;-71
2022/07/23 11:26:58;;;;;;;7.90;5.43;;;24.80;78.10;;;;;;5002864;28;20213;-71
2022/07/23 11:29:36;;;;;;;6.78;5.00;;;24.80;78.10;;;;;;5001724;28;20688;-71
2022/07/23 11:32:17;;;;;;;6.45;5.57;;;24.80;78.60;;;;;;4975130;28;20189;-71
2022/07/23 11:34:49;;;;;;;5.00;4.65;;;24.80;78.60;;;;;;4987883;28;20195;-71
2022/07/23 11:37:37;;;;;;;6.63;5.68;;;24.80;78.30;;;;;;4992901;28;20209;-71
2022/07/23 11:40:11;;;;;;;5.70;4.80;;;24.80;78.80;;;;;;5013026;28;20188;-71
2022/07/23 11:43:06;;;;;;;10.18;5.70;;;24.80;78.10;;;;;;4994084;28;20213;-71
2022/07/23 11:45:40;;;;;;;6.20;5.60;;;24.80;78.10;;;;;;4988478;28;20216;-70
2022/07/23 11:48:21;;;;;;;5.22;4.82;;;24.80;78.30;;;;;;4973411;28;20630;-68
2022/07/23 11:50:49;;;;;;;5.57;5.13;;;24.80;78.50;;;;;;4974326;28;20707;-70
2022/07/23 11:53:24;;;;;;;6.07;5.57;;;24.80;78.30;;;;;;4990438;28;20185;-70
2022/07/23 11:55:50;;;;;;;6.65;5.80;;;24.80;78.70;;;;;;4989585;28;20209;-69
2022/07/23 11:58:15;;;;;;;7.55;5.93;;;24.80;78.90;;;;;;4989357;28;20193;-70
2022/07/23 12:00:42;;;;;;;7.55;5.38;;;24.80;79.30;;;;;;4989977;28;20272;-70
2022/07/23 12:03:08;;;;;;;6.28;5.65;;;24.80;79.10;;;;;;4990272;28;20194;-70
2022/07/23 12:05:37;;;;;;;6.25;5.10;;;24.80;79.20;;;;;;4973095;28;20206;-69
2022/07/23 12:08:09;;;;;;;5.75;5.25;;;24.80;79.50;;;;;;4957654;28;20193;-70
2022/07/23 12:10:41;;;;;;;6.07;5.57;;;24.80;78.90;;;;;;4989787;28;20217;-70
2022/07/23 12:13:17;;;;;;;6.35;5.75;;;24.80;78.60;;;;;;4989934;28;20196;-69
2022/07/23 12:15:50;;;;;;;6.68;5.72;;;24.80;78.70;;;;;;4989329;28;20236;-69
2022/07/23 12:18:21;;;;;;;9.20;5.50;;;24.80;78.70;;;;;;4957744;28;20633;-69
2022/07/23 12:20:55;;;;;;;6.00;5.35;;;24.80;78.50;;;;;;4957619;28;20189;-69
2022/07/23 12:23:25;;;;;;;6.18;5.57;;;24.80;78.10;;;;;;4973507;28;20645;-69
2022/07/23 12:25:52;;;;;;;6.85;5.22;;;24.90;79.10;;;;;;4988774;28;20244;-70
2022/07/23 12:28:32;;;;;;;6.07;5.30;;;24.80;78.80;;;;;;4973558;28;20196;-70
2022/07/23 12:30:59;;;;;;;6.20;5.60;;;24.80;78.80;;;;;;4989259;28;20700;-70
2022/07/23 12:33:28;;;;;;;5.95;5.40;;;24.80;78.60;;;;;;4989792;28;20233;-70
2022/07/23 12:35:58;;;;;;;6.10;5.60;;;24.90;78.50;;;;;;4972863;28;20207;-69
2022/07/23 12:38:27;;;;;;;5.63;5.13;;;24.80;78.10;;;;;;4989736;28;20196;-69
2022/07/23 12:40:59;;;;;;;5.72;5.13;;;24.80;78.10;;;;;;4989610;28;20321;-70
2022/07/23 12:43:31;;;;;;;6.78;5.30;;;24.80;78.40;;;;;;4989340;28;20189;-70
2022/07/23 12:46:14;;;;;;;6.38;5.88;;;24.80;78.50;;;;;;4988762;28;20300;-69
2022/07/23 12:48:53;;;;;;;6.07;5.47;;;24.80;78.30;;;;;;4956747;28;20217;-69
2022/07/23 12:51:31;;;;;;;6.25;5.53;;;24.80;78.10;;;;;;4988940;28;20223;-70
2022/07/23 12:54:06;;;;;;;5.90;5.32;;;24.80;78.70;;;;;;4989054;28;20189;-70
2022/07/23 12:56:38;;;;;;;6.53;5.93;;;24.90;78.80;;;;;;4988302;28;20208;-69
2022/07/23 12:59:06;;;;;;;6.43;5.78;;;24.80;78.40;;;;;;4989321;28;20216;-70
2022/07/23 13:01:35;;;;;;;5.75;5.28;;;24.80;78.30;;;;;;4972984;28;20193;-70
2022/07/23 13:04:08;;;;;;;5.70;5.20;;;24.90;79.00;;;;;;4956245;28;20193;-69